createdAt,value
2022-10-28T00:01:14.377Z,5.63
2022-10-28T00:03:45.945Z,8.13
2022-10-28T00:06:19.389Z,6.80
2022-10-28T00:08:45.793Z,6.80
2022-10-28T00:11:16.474Z,5.38
2022-10-28T00:13:43.903Z,8.38
2022-10-28T00:16:15.931Z,7.05
2022-10-28T00:18:42.611Z,8.60
2022-10-28T00:21:15.462Z,6.97
2022-10-28T00:23:42.229Z,6.30
2022-10-28T00:26:16.963Z,6.90
2022-10-28T00:28:47.868Z,9.13
2022-10-28T00:31:15.698Z,9.07
2022-10-28T00:33:42.167Z,8.65
2022-10-28T00:36:28.088Z,9.82
2022-10-28T00:38:55.903Z,9.60
2022-10-28T00:41:27.932Z,8.20
2022-10-28T00:43:57.065Z,5.78
2022-10-28T00:46:37.466Z,9.60
2022-10-28T00:49:15.975Z,9.98
2022-10-28T00:51:43.347Z,5.80
2022-10-28T00:54:10.410Z,11.13
2022-10-28T00:56:39.944Z,8.25
2022-10-28T00:59:10.391Z,11.98
2022-10-28T01:01:37.117Z,6.03
2022-10-28T01:04:03.621Z,6.85
2022-10-28T01:06:30.317Z,5.82
2022-10-28T01:08:59.930Z,7.40
2022-10-28T01:11:36.504Z,14.07
2022-10-28T01:14:05.858Z,10.98
2022-10-28T01:17:04.639Z,10.77
2022-10-28T01:20:08.789Z,10.75
2022-10-28T01:22:39.905Z,8.45
2022-10-28T01:25:34.661Z,8.00
2022-10-28T01:28:17.082Z,8.48
2022-10-28T01:31:11.356Z,8.35
2022-10-28T01:33:49.456Z,7.32
2022-10-28T01:36:20.194Z,5.88
2022-10-28T01:39:27.989Z,9.48
2022-10-28T01:42:13.744Z,11.60
2022-10-28T01:45:01.835Z,7.57
2022-10-28T01:47:50.256Z,6.85
2022-10-28T01:50:29.034Z,7.55
2022-10-28T01:52:58.398Z,9.43
2022-10-28T01:55:35.289Z,12.02
2022-10-28T01:58:02.120Z,12.63
2022-10-28T02:00:30.282Z,11.20
2022-10-28T02:02:57.062Z,12.25
2022-10-28T02:05:46.181Z,7.38
2022-10-28T02:08:20.057Z,10.20
2022-10-28T02:11:02.081Z,7.47
2022-10-28T02:13:35.121Z,10.02
2022-10-28T02:16:42.799Z,8.45
2022-10-28T02:19:15.639Z,11.00
2022-10-28T02:21:51.012Z,9.93
2022-10-28T02:24:21.420Z,8.65
2022-10-28T02:26:53.644Z,10.48
2022-10-28T02:29:29.239Z,10.88
2022-10-28T02:31:58.532Z,9.68
2022-10-28T02:34:29.944Z,6.15
2022-10-28T02:36:58.298Z,9.65
2022-10-28T02:39:29.975Z,8.82
2022-10-28T02:42:05.735Z,10.80
2022-10-28T02:44:36.466Z,8.70
2022-10-28T02:48:12.934Z,8.15
2022-10-28T02:50:43.944Z,8.25
2022-10-28T02:53:19.276Z,6.75
2022-10-28T02:55:49.861Z,9.40
2022-10-28T02:58:16.337Z,10.20
2022-10-28T03:00:47.023Z,10.98
2022-10-28T03:03:13.911Z,8.35
2022-10-28T03:05:40.308Z,8.93
2022-10-28T03:08:06.923Z,13.40
2022-10-28T03:10:33.303Z,9.75
2022-10-28T03:12:59.706Z,11.27
2022-10-28T03:15:26.077Z,10.35
2022-10-28T03:17:52.706Z,9.90
2022-10-28T03:20:19.265Z,12.07
2022-10-28T03:22:45.712Z,12.43
2022-10-28T03:25:12.168Z,9.95
2022-10-28T03:27:41.576Z,10.80
2022-10-28T03:30:08.441Z,12.00
2022-10-28T03:32:34.867Z,9.20
2022-10-28T03:35:01.245Z,9.27
2022-10-28T03:37:27.702Z,10.23
2022-10-28T03:39:54.154Z,10.32
2022-10-28T03:42:20.580Z,8.98
2022-10-28T03:44:47.111Z,12.55
2022-10-28T03:47:13.495Z,10.23
2022-10-28T03:49:39.905Z,8.45
2022-10-28T03:52:06.405Z,9.50
2022-10-28T03:54:32.778Z,8.15
2022-10-28T03:56:59.180Z,9.43
2022-10-28T03:59:25.609Z,10.05
2022-10-28T04:01:52.140Z,9.75
2022-10-28T04:04:18.656Z,9.90
2022-10-28T04:06:45.091Z,9.10
2022-10-28T04:09:11.455Z,11.55
2022-10-28T04:11:37.855Z,9.35
2022-10-28T04:14:04.238Z,8.50
2022-10-28T04:16:30.599Z,12.63
2022-10-28T04:18:57.048Z,7.38
2022-10-28T04:21:23.463Z,10.60
2022-10-28T04:23:49.910Z,7.32
2022-10-28T04:26:16.338Z,9.23
2022-10-28T04:28:42.769Z,9.20
2022-10-28T04:31:12.052Z,10.23
2022-10-28T04:33:38.632Z,9.48
2022-10-28T04:36:05.235Z,7.60
2022-10-28T04:38:31.659Z,8.95
2022-10-28T04:40:58.104Z,8.60
2022-10-28T04:43:24.584Z,10.23
2022-10-28T04:45:51.002Z,7.45
2022-10-28T04:48:17.366Z,11.35
2022-10-28T04:50:44.456Z,8.65
2022-10-28T04:53:11.691Z,8.25
2022-10-28T04:55:38.135Z,7.65
2022-10-28T04:58:04.912Z,9.10
2022-10-28T05:00:31.590Z,11.45
2022-10-28T05:03:01.701Z,12.05
2022-10-28T05:05:28.091Z,11.43
2022-10-28T05:07:54.741Z,10.32
2022-10-28T05:10:21.409Z,8.45
2022-10-28T05:12:47.820Z,9.40
2022-10-28T05:15:14.989Z,8.05
2022-10-28T05:17:45.398Z,12.82
2022-10-28T05:20:12.922Z,9.82
2022-10-28T05:22:45.416Z,12.27
2022-10-28T05:27:38.171Z,8.88
2022-10-28T05:30:05.021Z,12.10
2022-10-28T05:32:31.430Z,9.65
2022-10-28T05:34:57.848Z,8.75
2022-10-28T05:37:24.215Z,7.10
2022-10-28T05:39:50.628Z,9.55
2022-10-28T05:42:17.067Z,7.30
2022-10-28T05:44:43.447Z,8.45
2022-10-28T05:47:09.901Z,12.98
2022-10-28T05:49:36.294Z,13.50
2022-10-28T05:52:02.720Z,9.73
2022-10-28T05:54:29.158Z,7.15
2022-10-28T05:56:55.568Z,12.20
2022-10-28T05:59:22.124Z,11.27
2022-10-28T06:01:48.542Z,8.10
2022-10-28T06:04:15.082Z,10.57
2022-10-28T06:06:41.524Z,10.90
2022-10-28T06:09:07.892Z,10.15
2022-10-28T06:11:33.689Z,11.63
2022-10-28T06:14:00.321Z,6.70
2022-10-28T06:16:26.738Z,9.20
2022-10-28T06:18:53.151Z,16.27
2022-10-28T06:21:19.649Z,7.55
2022-10-28T06:23:46.714Z,14.32
2022-10-28T06:26:13.110Z,8.82
2022-10-28T06:28:39.552Z,11.43
2022-10-28T06:31:10.286Z,10.85
2022-10-28T06:33:36.763Z,14.80
2022-10-28T06:36:03.628Z,16.13
2022-10-28T06:38:30.063Z,11.18
2022-10-28T06:40:57.927Z,10.07
2022-10-28T06:43:24.379Z,13.05
2022-10-28T06:45:55.004Z,12.20
2022-10-28T06:48:23.902Z,11.13
2022-10-28T06:50:50.332Z,11.68
2022-10-28T06:53:16.766Z,13.65
2022-10-28T06:55:48.559Z,11.48
2022-10-28T06:58:15.313Z,13.25
2022-10-28T07:00:41.897Z,11.23
2022-10-28T07:03:10.513Z,12.43
2022-10-28T07:05:37.150Z,13.35
2022-10-28T07:08:04.476Z,12.70
2022-10-28T07:10:30.902Z,10.25
2022-10-28T07:12:57.696Z,8.30
2022-10-28T07:15:24.203Z,8.90
2022-10-28T07:17:54.700Z,10.52
2022-10-28T07:20:21.616Z,15.85
2022-10-28T07:22:48.054Z,10.23
2022-10-28T07:25:14.520Z,11.07
2022-10-28T07:27:40.886Z,10.38
2022-10-28T07:30:07.996Z,12.77
2022-10-28T07:32:34.405Z,9.55
2022-10-28T07:35:00.840Z,12.18
2022-10-28T07:37:27.216Z,9.27
2022-10-28T07:39:53.632Z,7.22
2022-10-28T07:42:20.032Z,13.20
2022-10-28T07:44:46.453Z,10.88
2022-10-28T07:47:13.056Z,8.63
2022-10-28T07:49:39.459Z,9.32
2022-10-28T07:52:05.856Z,9.38
2022-10-28T07:54:32.278Z,11.40
2022-10-28T07:56:58.672Z,12.70
2022-10-28T07:59:26.802Z,12.23
2022-10-28T08:01:53.889Z,10.18
2022-10-28T08:04:20.301Z,10.10
2022-10-28T08:06:46.762Z,11.07
2022-10-28T08:09:13.146Z,11.20
2022-10-28T08:11:39.534Z,12.07
2022-10-28T08:14:05.950Z,12.30
2022-10-28T08:16:32.350Z,10.95
2022-10-28T08:18:58.724Z,6.95
2022-10-28T08:21:27.004Z,9.02
2022-10-28T08:23:54.438Z,13.77
2022-10-28T08:26:21.076Z,15.93
2022-10-28T08:28:47.536Z,12.63
2022-10-28T08:31:14.034Z,11.00
2022-10-28T08:33:42.598Z,11.07
2022-10-28T08:36:11.058Z,13.82
2022-10-28T08:38:40.515Z,11.45
2022-10-28T08:41:24.254Z,9.05
2022-10-28T08:44:27.137Z,9.80
2022-10-28T08:47:06.592Z,9.65
2022-10-28T08:49:34.695Z,9.40
2022-10-28T08:52:05.485Z,14.07
2022-10-28T08:55:03.048Z,11.45
2022-10-28T08:57:36.767Z,10.57
2022-10-28T09:00:06.802Z,9.23
2022-10-28T09:02:45.198Z,12.70
2022-10-28T09:05:22.270Z,10.18
2022-10-28T09:07:48.941Z,12.73
2022-10-28T09:10:16.550Z,14.07
2022-10-28T09:12:42.850Z,14.90
2022-10-28T09:15:20.184Z,8.05
2022-10-28T09:17:58.307Z,12.90
2022-10-28T09:20:27.657Z,7.45
2022-10-28T09:23:06.927Z,10.77
2022-10-28T09:26:04.713Z,10.70
2022-10-28T09:28:43.126Z,17.52
2022-10-28T09:31:09.592Z,12.98
2022-10-28T09:33:50.821Z,16.73
2022-10-28T09:36:23.584Z,12.20
2022-10-28T09:38:51.796Z,14.23
2022-10-28T09:41:21.004Z,10.25
2022-10-28T09:43:55.972Z,12.48
2022-10-28T09:46:24.232Z,10.43
2022-10-28T09:48:56.477Z,15.25
2022-10-28T09:51:55.272Z,12.82
2022-10-28T09:54:36.131Z,12.90
2022-10-28T09:57:03.328Z,15.88
2022-10-28T09:59:29.869Z,11.02
2022-10-28T10:01:56.435Z,11.57
2022-10-28T10:04:28.170Z,17.05
2022-10-28T10:06:58.993Z,12.23
2022-10-28T10:09:31.439Z,16.98
2022-10-28T10:12:05.386Z,11.25
2022-10-28T10:14:38.492Z,15.07
2022-10-28T10:17:07.942Z,11.63
2022-10-28T10:19:59.200Z,11.43
2022-10-28T10:22:45.686Z,11.15
2022-10-28T10:25:18.438Z,13.73
2022-10-28T10:27:57.497Z,11.65
2022-10-28T10:30:31.665Z,12.13
2022-10-28T10:32:58.555Z,11.45
2022-10-28T10:35:30.560Z,10.05
2022-10-28T10:37:59.209Z,12.52
2022-10-28T10:40:31.115Z,11.95
2022-10-28T10:43:17.376Z,9.65
2022-10-28T10:45:52.921Z,11.70
2022-10-28T10:48:19.362Z,12.27
2022-10-28T10:50:48.457Z,14.27
2022-10-28T10:53:22.791Z,9.07
2022-10-28T10:55:52.237Z,14.55
2022-10-28T10:58:21.997Z,13.05
2022-10-28T11:00:51.414Z,12.68
2022-10-28T11:03:45.854Z,10.40
2022-10-28T11:06:23.920Z,13.52
2022-10-28T11:08:59.060Z,11.40
2022-10-28T11:11:32.872Z,12.10
2022-10-28T11:14:05.223Z,12.95
2022-10-28T11:16:31.658Z,17.08
2022-10-28T11:18:58.118Z,10.77
2022-10-28T11:21:54.451Z,18.40
2022-10-28T11:24:45.453Z,13.20
2022-10-28T11:27:39.881Z,13.43
2022-10-28T11:30:11.270Z,9.80
2022-10-28T11:33:02.155Z,11.63
2022-10-28T11:36:01.306Z,14.18
2022-10-28T11:38:30.765Z,12.85
2022-10-28T11:41:29.468Z,14.63
2022-10-28T11:44:03.797Z,11.65
2022-10-28T11:46:43.610Z,13.98
2022-10-28T11:49:44.180Z,11.32
2022-10-28T11:52:31.729Z,16.00
2022-10-28T11:55:07.286Z,12.45
2022-10-28T11:57:56.372Z,9.13
2022-10-28T12:00:32.357Z,15.35
2022-10-28T12:03:29.735Z,11.50
2022-10-28T12:06:04.729Z,12.77
2022-10-28T12:08:38.217Z,13.65
2022-10-28T12:11:26.006Z,12.90
2022-10-28T12:14:06.981Z,11.70
2022-10-28T12:16:40.446Z,12.30
2022-10-28T12:19:17.366Z,10.25
2022-10-28T12:22:02.284Z,12.85
2022-10-28T12:24:29.791Z,14.02
2022-10-28T12:27:06.445Z,10.50
2022-10-28T12:29:38.682Z,14.13
2022-10-28T12:32:08.070Z,16.90
2022-10-28T12:34:47.653Z,13.73
2022-10-28T12:37:18.713Z,11.63
2022-10-28T12:39:51.104Z,9.98
2022-10-28T12:42:34.273Z,13.85
2022-10-28T12:45:02.014Z,15.70
2022-10-28T12:47:49.185Z,12.07
2022-10-28T12:50:27.985Z,10.65
2022-10-28T12:53:19.789Z,13.20
2022-10-28T12:55:50.636Z,12.07
2022-10-28T12:58:32.424Z,15.77
2022-10-28T13:01:09.787Z,13.13
2022-10-28T13:03:36.623Z,12.25
2022-10-28T13:06:09.183Z,12.70
2022-10-28T13:09:00.272Z,11.75
2022-10-28T13:11:40.276Z,12.65
2022-10-28T13:14:06.633Z,11.77
2022-10-28T13:16:51.532Z,9.30
2022-10-28T13:19:39.139Z,12.00
2022-10-28T13:22:20.659Z,15.30
2022-10-28T13:24:50.055Z,10.07
2022-10-28T13:27:16.819Z,9.90
2022-10-28T13:29:43.991Z,16.98
2022-10-28T13:32:39.057Z,14.82
2022-10-28T13:35:21.496Z,13.57
2022-10-28T13:40:31.736Z,12.45
2022-10-28T13:42:58.901Z,12.85
2022-10-28T13:45:54.997Z,11.55
2022-10-28T13:48:30.529Z,12.02
2022-10-28T13:51:09.006Z,13.20
2022-10-28T13:53:47.726Z,14.98
2022-10-28T13:56:20.043Z,13.13
2022-10-28T13:58:55.249Z,15.32
2022-10-28T14:02:01.694Z,11.43
2022-10-28T14:07:04.152Z,11.30
2022-10-28T14:09:35.439Z,10.45
2022-10-28T14:12:13.726Z,10.90
2022-10-28T14:14:52.059Z,8.20
2022-10-28T14:17:21.545Z,12.27
2022-10-28T14:19:49.914Z,9.93
2022-10-28T14:22:28.052Z,11.50
2022-10-28T14:24:54.570Z,9.85
2022-10-28T14:27:31.624Z,16.15
2022-10-28T14:29:58.182Z,13.50
2022-10-28T14:32:30.597Z,14.68
2022-10-28T14:34:59.764Z,13.77
2022-10-28T14:37:50.566Z,20.00
2022-10-28T14:40:24.468Z,15.98
2022-10-28T14:42:53.861Z,14.90
2022-10-28T14:45:38.429Z,12.80
2022-10-28T14:48:35.927Z,11.88
2022-10-28T14:51:02.989Z,13.52
2022-10-28T14:53:31.634Z,16.15
2022-10-28T14:56:04.545Z,18.30
2022-10-28T14:58:36.795Z,11.20
2022-10-28T15:01:18.717Z,14.93
2022-10-28T15:03:47.617Z,12.65
2022-10-28T15:06:32.660Z,12.38
2022-10-28T15:09:05.321Z,9.90
2022-10-28T15:11:32.687Z,13.70
2022-10-28T15:14:13.716Z,16.80
2022-10-28T15:16:47.999Z,14.60
2022-10-28T15:19:18.685Z,14.75
2022-10-28T15:21:59.761Z,18.85
2022-10-28T15:24:26.253Z,15.57
2022-10-28T15:26:56.054Z,11.30
2022-10-28T15:29:23.817Z,15.15
2022-10-28T15:32:16.354Z,12.65
2022-10-28T15:37:09.694Z,12.18
2022-10-28T15:39:36.686Z,11.35
2022-10-28T15:42:03.471Z,8.60
2022-10-28T15:44:35.947Z,16.35
2022-10-28T15:47:15.647Z,13.68
2022-10-28T15:49:42.417Z,11.70
2022-10-28T15:52:17.977Z,17.20
2022-10-28T15:54:55.512Z,15.15
2022-10-28T15:57:24.078Z,14.38
2022-10-28T16:00:23.050Z,10.38
2022-10-28T16:02:53.516Z,17.00
2022-10-28T16:05:40.417Z,22.83
2022-10-28T16:08:18.268Z,13.50
2022-10-28T16:10:47.382Z,10.60
2022-10-28T16:13:21.058Z,13.38
2022-10-28T16:15:59.945Z,12.50
2022-10-28T16:18:28.158Z,15.20
2022-10-28T16:20:55.367Z,10.63
2022-10-28T16:23:23.626Z,15.50
2022-10-28T16:25:50.095Z,11.77
2022-10-28T16:28:25.511Z,11.90
2022-10-28T16:30:54.046Z,12.38
2022-10-28T16:33:27.161Z,16.52
2022-10-28T16:35:53.644Z,14.18
2022-10-28T16:38:20.103Z,18.55
2022-10-28T16:40:51.366Z,13.55
2022-10-28T16:43:20.947Z,18.77
2022-10-28T16:45:48.432Z,18.38
2022-10-28T16:48:16.315Z,13.95
2022-10-28T16:50:45.319Z,13.50
2022-10-28T16:53:12.796Z,15.15
2022-10-28T16:55:39.570Z,12.10
2022-10-28T16:58:06.282Z,11.45
2022-10-28T17:00:32.693Z,11.98
2022-10-28T17:02:59.262Z,14.13
2022-10-28T17:05:25.758Z,14.98
2022-10-28T17:07:55.995Z,14.80
2022-10-28T17:10:23.050Z,16.90
2022-10-28T17:12:50.185Z,23.10
2022-10-28T17:15:17.017Z,18.20
2022-10-28T17:17:43.479Z,16.02
2022-10-28T17:20:10.403Z,14.40
2022-10-28T17:22:39.057Z,12.95
2022-10-28T17:25:05.705Z,19.10
2022-10-28T17:27:32.174Z,18.90
2022-10-28T17:29:58.698Z,15.80
2022-10-28T17:32:25.164Z,13.70
2022-10-28T17:34:51.638Z,15.80
2022-10-28T17:37:18.151Z,14.63
2022-10-28T17:39:44.802Z,17.67
2022-10-28T17:42:11.256Z,14.23
2022-10-28T17:44:37.834Z,14.27
2022-10-28T17:47:04.282Z,17.50
2022-10-28T17:49:32.615Z,18.52
2022-10-28T17:51:58.975Z,14.77
2022-10-28T17:54:25.358Z,15.57
2022-10-28T17:56:51.845Z,13.55
2022-10-28T17:59:18.796Z,13.77
2022-10-28T18:01:45.268Z,18.08
2022-10-28T18:04:12.113Z,20.63
2022-10-28T18:06:38.642Z,15.70
2022-10-28T18:09:05.125Z,16.90
2022-10-28T18:11:33.920Z,13.70
2022-10-28T18:14:03.808Z,13.98
2022-10-28T18:16:30.262Z,12.60
2022-10-28T18:18:56.811Z,16.77
2022-10-28T18:21:24.384Z,17.42
2022-10-28T18:23:54.395Z,14.88
2022-10-28T18:26:20.959Z,14.23
2022-10-28T18:28:48.787Z,14.43
2022-10-28T18:31:17.848Z,13.75
2022-10-28T18:33:44.542Z,16.30
2022-10-28T18:36:13.566Z,14.32
2022-10-28T18:38:40.338Z,12.13
2022-10-28T18:41:15.206Z,16.27
2022-10-28T18:43:41.811Z,15.88
2022-10-28T18:46:08.465Z,16.65
2022-10-28T18:48:35.298Z,17.42
2022-10-28T18:51:06.490Z,17.63
2022-10-28T18:53:37.630Z,20.70
2022-10-28T18:56:06.163Z,14.40
2022-10-28T18:58:32.833Z,14.50
2022-10-28T19:01:13.987Z,12.10
2022-10-28T19:03:41.547Z,11.98
2022-10-28T19:06:10.887Z,15.80
2022-10-28T19:08:38.038Z,16.63
2022-10-28T19:11:05.145Z,15.95
2022-10-28T19:13:36.968Z,15.85
2022-10-28T19:16:04.083Z,11.90
2022-10-28T19:18:35.167Z,11.18
2022-10-28T19:21:04.315Z,14.98
2022-10-28T19:23:31.988Z,15.20
2022-10-28T19:25:58.776Z,14.20
2022-10-28T19:28:25.209Z,16.00
2022-10-28T19:31:02.291Z,17.42
2022-10-28T19:33:30.256Z,12.93
2022-10-28T19:36:05.857Z,13.90
2022-10-28T19:38:34.077Z,14.00
2022-10-28T19:41:12.551Z,14.57
2022-10-28T19:43:39.438Z,13.60
2022-10-28T19:46:10.894Z,14.07
2022-10-28T19:48:42.366Z,13.93
2022-10-28T19:51:12.171Z,9.90
2022-10-28T19:53:38.585Z,14.00
2022-10-28T19:56:05.184Z,14.38
2022-10-28T19:58:32.364Z,18.08
2022-10-28T20:01:05.854Z,12.40
2022-10-28T20:03:34.603Z,12.57
2022-10-28T20:06:13.319Z,13.52
2022-10-28T20:08:43.659Z,18.08
2022-10-28T20:11:31.659Z,16.13
2022-10-28T20:14:04.165Z,17.77
2022-10-28T20:16:31.721Z,14.88
2022-10-28T20:18:58.699Z,10.52
2022-10-28T20:21:30.261Z,13.90
2022-10-28T20:23:57.214Z,14.83
2022-10-28T20:26:26.043Z,15.50
2022-10-28T20:28:52.446Z,15.20
2022-10-28T20:31:20.894Z,21.45
2022-10-28T20:33:52.423Z,20.85
2022-10-28T20:36:24.404Z,13.80
2022-10-28T20:39:11.890Z,13.02
2022-10-28T20:41:39.831Z,16.25
2022-10-28T20:44:07.126Z,15.93
2022-10-28T20:46:33.654Z,16.20
2022-10-28T20:49:00.882Z,16.20
2022-10-28T20:51:29.380Z,18.52
2022-10-28T20:53:55.923Z,16.42
2022-10-28T20:56:24.039Z,18.17
2022-10-28T20:58:50.809Z,16.52
2022-10-28T21:01:20.467Z,17.85
2022-10-28T21:03:47.112Z,16.73
2022-10-28T21:06:15.518Z,20.35
2022-10-28T21:08:42.878Z,13.95
2022-10-28T21:11:11.668Z,16.02
2022-10-28T21:13:38.217Z,17.23
2022-10-28T21:16:05.787Z,13.80
2022-10-28T21:18:32.821Z,16.83
2022-10-28T21:20:59.837Z,19.48
2022-10-28T21:23:27.802Z,18.73
2022-10-28T21:25:54.896Z,18.50
2022-10-28T21:28:22.029Z,17.48
2022-10-28T21:30:48.500Z,15.07
2022-10-28T21:33:15.045Z,16.95
2022-10-28T21:35:42.016Z,21.33
2022-10-28T21:38:10.473Z,16.00
2022-10-28T21:40:37.017Z,15.77
2022-10-28T21:43:03.571Z,15.07
2022-10-28T21:45:30.013Z,17.27
2022-10-28T21:47:56.884Z,15.68
2022-10-28T21:50:23.573Z,12.68
2022-10-28T21:52:50.078Z,16.38
2022-10-28T21:55:26.728Z,12.75
2022-10-28T21:58:03.822Z,13.70
2022-10-28T22:00:30.320Z,19.20
2022-10-28T22:02:56.796Z,18.20
2022-10-28T22:05:23.232Z,16.95
2022-10-28T22:07:49.711Z,14.48
2022-10-28T22:10:16.206Z,19.30
2022-10-28T22:12:42.769Z,18.55
2022-10-28T22:15:09.469Z,17.08
2022-10-28T22:17:35.932Z,16.08
2022-10-28T22:20:02.467Z,15.68
2022-10-28T22:22:31.183Z,16.20
2022-10-28T22:24:57.641Z,18.92
2022-10-28T22:27:24.088Z,22.48
2022-10-28T22:29:50.494Z,14.30
2022-10-28T22:32:16.893Z,16.55
2022-10-28T22:34:43.283Z,18.20
2022-10-28T22:37:09.671Z,24.10
2022-10-28T22:39:36.101Z,11.15
2022-10-28T22:42:02.739Z,20.00
2022-10-28T22:44:29.210Z,14.25
2022-10-28T22:46:55.761Z,19.95
2022-10-28T22:49:22.544Z,17.95
2022-10-28T22:51:49.625Z,13.98
2022-10-28T22:54:16.154Z,12.77
2022-10-28T22:56:45.532Z,16.45
2022-10-28T22:59:12.171Z,19.75
2022-10-28T23:01:39.329Z,14.00
2022-10-28T23:04:10.301Z,16.77
2022-10-28T23:06:36.700Z,13.52
2022-10-28T23:09:03.648Z,18.02
2022-10-28T23:11:30.640Z,17.17
2022-10-28T23:13:57.078Z,16.55
2022-10-28T23:16:23.843Z,16.70
2022-10-28T23:18:52.625Z,18.08
2022-10-28T23:21:23.671Z,21.10
2022-10-28T23:24:00.041Z,14.63
2022-10-28T23:26:28.300Z,19.15
2022-10-28T23:28:56.752Z,20.38
2022-10-28T23:31:23.538Z,17.88
2022-10-28T23:33:50.290Z,18.70
2022-10-28T23:36:17.274Z,18.55
2022-10-28T23:38:43.835Z,17.45
2022-10-28T23:41:14.427Z,18.90
2022-10-28T23:43:41.673Z,16.75
2022-10-28T23:46:08.635Z,24.52
2022-10-28T23:48:35.094Z,19.88
2022-10-28T23:51:01.496Z,17.23
2022-10-28T23:55:55.610Z,22.65
2022-10-28T23:58:22.544Z,14.02
